.
WxDataArchive / Data Records for 2007-01-05
2007-01-04 January 2007 2007-01-06

Data Records for Friday, 05 January 2007

Time	Temp	Chill	HIndex	Humid	Dewpt	 Wind 	HiWind	WindDir	Rain 	Barom 
-----	----	-----	------	-----	-----	------	------	-------	-----	----- 
00:00	51.6	51.6	51.6	97	50.8	3	7	270	0.01	29.645 
00:05	51.9	51.9	51.9	97	51.1	4	10	248	0.00	29.645 
00:10	52.2	52.2	52.2	97	51.4	4	8	248	0.01	29.645 
00:15	52.3	52.3	52.3	97	51.5	3	9	248	0.00	29.634 
00:20	52.5	52.5	52.5	97	51.7	4	8	248	0.00	29.634 
00:25	52.6	52.6	52.6	97	51.8	4	10	248	0.00	29.634 
00:30	52.8	52.8	52.8	97	52.0	4	6	270	0.00	29.626 
00:35	52.9	52.9	52.9	97	52.1	4	10	248	0.01	29.626 
00:40	52.9	52.9	52.9	97	52.1	4	9	248	0.00	29.626 
00:45	52.9	52.9	52.9	97	52.1	4	8	248	0.00	29.626 
00:50	52.9	52.9	52.9	97	52.1	4	10	270	0.00	29.626 
00:55	52.9	52.9	52.9	97	52.1	4	8	270	0.00	29.626 
01:00	52.9	52.9	52.9	96	51.8	5	13	248	0.00	29.619 
01:05	53.1	53.1	53.1	96	52.0	4	10	248	0.00	29.619 
01:10	53.1	53.1	53.1	96	52.0	4	9	248	0.00	29.619 
01:15	53.1	53.1	53.1	96	52.0	4	10	248	0.00	29.619 
01:20	53.1	53.1	53.1	96	52.0	4	11	248	0.00	29.619 
01:25	53.2	53.2	53.2	95	51.8	5	12	270	0.00	29.619 
01:30	53.1	53.1	53.1	95	51.7	4	12	270	0.00	29.625 
01:35	53.1	53.1	53.1	95	51.7	5	10	270	0.00	29.625 
01:40	53.2	53.2	53.2	95	51.8	6	12	270	0.00	29.625 
01:45	53.1	53.1	53.1	95	51.7	4	11	248	0.00	29.627 
01:50	53.1	53.1	53.1	95	51.7	5	12	248	0.00	29.627 
01:55	53.1	53.1	53.1	95	51.7	5	10	270	0.00	29.627 
02:00	53.1	53.1	53.1	95	51.7	4	10	270	0.00	29.631 
02:05	53.1	53.1	53.1	95	51.7	5	12	270	0.00	29.631 
02:10	53.1	53.1	53.1	94	51.4	4	10	248	0.00	29.631 
02:15	53.1	53.1	53.1	94	51.4	3	7	248	0.00	29.632 
02:20	53.1	53.1	53.1	94	51.4	4	10	248	0.00	29.632 
02:25	53.1	53.1	53.1	94	51.4	4	10	248	0.00	29.632 
02:30	53.1	53.1	53.1	94	51.4	3	7	248	0.00	29.646 
02:35	53.1	53.1	53.1	94	51.4	4	11	248	0.00	29.646 
02:40	53.1	53.1	53.1	94	51.4	5	13	248	0.00	29.646 
02:45	53.1	53.1	53.1	94	51.4	4	13	270	0.00	29.657 
02:50	53.1	53.1	53.1	94	51.4	4	11	270	0.00	29.657 
02:55	53.1	53.1	53.1	94	51.4	6	15	270	0.00	29.657 
03:00	53.1	53.1	53.1	94	51.4	5	12	270	0.00	29.662 
03:05	52.9	52.9	52.9	94	51.2	4	10	248	0.00	29.662 
03:10	52.9	52.9	52.9	94	51.2	5	9	248	0.00	29.662 
03:15	52.8	52.8	52.8	94	51.1	3	8	248	0.00	29.666 
03:20	52.8	52.8	52.8	94	51.1	4	7	270	0.00	29.666 
03:25	52.6	52.6	52.6	94	50.9	3	10	248	0.00	29.666 
03:30	52.6	52.6	52.6	94	50.9	4	10	248	0.01	29.665 
03:35	52.5	52.5	52.5	95	51.1	4	10	270	0.00	29.665 
03:40	52.5	52.5	52.5	95	51.1	4	11	270	0.00	29.665 
03:45	52.3	52.3	52.3	95	50.9	3	11	270	0.00	29.674 
03:50	52.3	52.3	52.3	95	50.9	4	11	270	0.00	29.674 
03:55	52.2	52.2	52.2	95	50.8	4	7	248	0.00	29.674 
04:00	52.2	52.2	52.2	95	50.8	4	9	270	0.00	29.671 
04:05	52.2	52.2	52.2	95	50.8	4	9	270	0.00	29.671 
04:10	52.0	52.0	52.0	95	50.6	2	4	270	0.00	29.671 
04:15	51.9	51.9	51.9	95	50.5	3	10	248	0.00	29.673 
04:20	51.9	51.9	51.9	95	50.5	3	6	248	0.00	29.673 
04:25	51.7	51.7	51.7	95	50.3	4	10	248	0.00	29.673 
04:30	51.7	51.7	51.7	96	50.6	3	10	248	0.00	29.680 
04:35	51.7	51.7	51.7	96	50.6	3	8	248	0.00	29.680 
04:40	51.6	51.6	51.6	96	50.5	3	7	248	0.00	29.680 
04:45	51.6	51.6	51.6	96	50.5	3	6	248	0.00	29.673 
04:50	51.6	51.6	51.6	96	50.5	3	7	270	0.00	29.673 
04:55	51.6	51.6	51.6	96	50.5	2	5	248	0.00	29.673 
05:00	51.4	51.4	51.4	96	50.3	3	7	248	0.00	29.668 
05:05	51.4	51.4	51.4	96	50.3	2	5	248	0.00	29.668 
05:10	51.4	51.4	51.4	96	50.3	2	7	248	0.00	29.668 
05:15	51.4	51.4	51.4	96	50.3	3	7	248	0.00	29.668 
05:20	51.3	51.3	51.3	96	50.2	2	5	248	0.00	29.668 
05:25	51.3	51.3	51.3	96	50.2	3	6	248	0.00	29.668 
05:30	51.3	51.3	51.3	96	50.2	2	6	248	0.00	29.669 
05:35	51.3	51.3	51.3	96	50.2	2	7	248	0.00	29.669 
05:40	51.3	51.3	51.3	96	50.2	3	7	248	0.00	29.669 
05:45	51.3	51.3	51.3	95	49.9	3	9	248	0.00	29.667 
05:50	51.3	51.3	51.3	95	49.9	2	6	248	0.00	29.667 
05:55	51.1	51.1	51.1	95	49.7	2	5	248	0.00	29.667 
06:00	51.1	51.1	51.1	95	49.7	0	2	248	0.00	29.664 
06:05	51.1	51.1	51.1	95	49.7	1	4	248	0.00	29.664 
06:10	51.1	51.1	51.1	95	49.7	2	5	248	0.00	29.664 
06:15	51.1	51.1	51.1	95	49.7	1	3	248	0.00	29.671 
06:20	51.1	51.1	51.1	95	49.7	1	3	248	0.00	29.671 
06:25	51.0	51.0	51.0	95	49.6	2	5	248	0.00	29.671 
06:30	51.0	51.0	51.0	95	49.6	2	5	248	0.00	29.672 
06:35	51.1	51.1	51.1	95	49.7	2	4	248	0.00	29.672 
06:40	51.0	51.0	51.0	95	49.6	1	4	248	0.00	29.672 
06:45	51.0	51.0	51.0	95	49.6	1	3	248	0.00	29.680 
06:50	51.0	51.0	51.0	95	49.6	1	3	248	0.00	29.680 
06:55	51.0	51.0	51.0	95	49.6	1	3	270	0.00	29.680 
07:00	51.1	51.1	51.1	95	49.7	1	4	248	0.00	29.683 
07:05	51.1	51.1	51.1	95	49.7	1	3	248	0.00	29.683 
07:10	51.0	51.0	51.0	95	49.6	1	5	248	0.00	29.683 
07:15	51.0	51.0	51.0	95	49.6	1	4	248	0.00	29.682 
07:20	51.1	51.1	51.1	95	49.7	2	5	248	0.00	29.682 
07:25	51.1	51.1	51.1	95	49.7	1	3	248	0.00	29.682 
07:30	51.1	51.1	51.1	95	49.7	2	5	248	0.00	29.682 
07:35	51.1	51.1	51.1	94	49.4	1	4	248	0.00	29.682 
07:40	51.1	51.1	51.1	94	49.4	1	3	248	0.00	29.682 
07:45	51.0	51.0	51.0	94	49.3	0	3	248	0.00	29.678 
07:50	51.0	51.0	51.0	94	49.3	1	4	248	0.00	29.678 
07:55	51.0	51.0	51.0	94	49.3	1	4	248	0.00	29.678 
08:00	51.0	51.0	51.0	94	49.3	2	4	248	0.00	29.684 
08:05	51.0	51.0	51.0	94	49.3	2	6	248	0.00	29.684 
08:10	51.0	51.0	51.0	94	49.3	2	6	248	0.00	29.684 
08:15	51.0	51.0	51.0	94	49.3	1	4	248	0.00	29.687 
08:20	51.0	51.0	51.0	94	49.3	1	3	248	0.00	29.687 
08:25	51.0	51.0	51.0	94	49.3	1	4	248	0.00	29.687 
08:30	51.0	51.0	51.0	94	49.3	2	6	248	0.00	29.691 
08:35	50.8	50.8	50.8	94	49.1	1	3	248	0.00	29.691 
08:40	50.8	50.8	50.8	94	49.1	1	3	248	0.00	29.691 
08:45	50.8	50.8	50.8	94	49.1	1	3	248	0.00	29.691 
08:50	50.8	50.8	50.8	94	49.1	1	3	248	0.00	29.691 
08:55	50.8	50.8	50.8	94	49.1	1	4	248	0.00	29.691 
09:00	50.8	50.8	50.8	94	49.1	2	4	248	0.00	29.697 
09:05	50.8	50.8	50.8	94	49.1	0	2	248	0.00	29.697 
09:10	50.7	50.7	50.7	95	49.3	1	4	248	0.00	29.697 
09:15	50.7	50.7	50.7	95	49.3	0	2	248	0.00	29.693 
09:20	50.7	50.7	50.7	95	49.3	1	4	248	0.00	29.693 
09:25	50.7	50.7	50.7	95	49.3	0	2	248	0.00	29.693 
09:30	50.7	50.7	50.7	95	49.3	0	2	248	0.00	29.700 
09:35	50.7	50.7	50.7	95	49.3	1	3	248	0.00	29.700 
09:40	50.7	50.7	50.7	95	49.3	0	1	248	0.00	29.700 
09:45	50.7	50.7	50.7	95	49.3	0	1	248	0.00	29.704 
09:50	50.7	50.7	50.7	96	49.6	0	1	248	0.00	29.704 
09:55	50.7	50.7	50.7	96	49.6	0	1	248	0.00	29.704 
10:00	50.7	50.7	50.7	96	49.6	0	1	248	0.00	29.709 
10:05	50.7	50.7	50.7	96	49.6	0	1	248	0.00	29.709 
10:10	50.7	50.7	50.7	96	49.6	0	1	248	0.00	29.709 
10:15	50.7	50.7	50.7	96	49.6	0	1	248	0.00	29.705 
10:20	50.7	50.7	50.7	96	49.6	0	0	---	0.00	29.705 
10:25	50.7	50.7	50.7	96	49.6	0	0	---	0.00	29.705 
10:30	50.7	50.7	50.7	96	49.6	0	0	---	0.00	29.697 
10:35	50.7	50.7	50.7	96	49.6	0	0	---	0.00	29.697 
10:40	50.7	50.7	50.7	96	49.6	0	0	---	0.00	29.697 
10:45	50.7	50.7	50.7	96	49.6	0	0	---	0.00	29.706 
10:50	50.7	50.7	50.7	96	49.6	0	0	---	0.00	29.706 
10:55	50.7	50.7	50.7	97	49.9	0	0	---	0.00	29.706 
11:00	50.7	50.7	50.7	97	49.9	0	0	---	0.00	29.697 
11:05	50.7	50.7	50.7	97	49.9	0	0	---	0.00	29.697 
11:10	50.7	50.7	50.7	97	49.9	0	0	---	0.00	29.697 
11:15	50.7	50.7	50.7	97	49.9	0	0	---	0.00	29.688 
11:20	50.7	50.7	50.7	97	49.9	0	0	---	0.00	29.688 
11:25	50.7	50.7	50.7	97	49.9	0	0	---	0.00	29.688 
11:30	50.8	50.8	50.8	97	50.0	0	0	---	0.01	29.679 
11:35	50.8	50.8	50.8	97	50.0	0	0	---	0.00	29.679 
11:40	50.7	50.7	50.7	97	49.9	0	0	---	0.00	29.679 
11:45	50.7	50.7	50.7	97	49.9	0	1	248	0.00	29.663 
11:50	50.7	50.7	50.7	97	49.9	1	2	248	0.00	29.663 
11:55	50.7	50.7	50.7	97	49.9	0	2	248	0.00	29.663 
12:00	50.8	50.8	50.8	97	50.0	0	0	---	0.00	29.655 
12:05	50.8	50.8	50.8	97	50.0	0	0	---	0.00	29.655 
12:10	50.7	50.7	50.7	97	49.9	0	2	248	0.00	29.655 
12:15	50.7	50.7	50.7	97	49.9	0	1	248	0.00	29.643 
12:20	50.7	50.7	50.7	97	49.9	1	3	248	0.00	29.643 
12:25	50.8	50.8	50.8	97	50.0	0	2	180	0.00	29.643 
12:30	51.0	51.0	51.0	97	50.2	0	1	180	0.00	29.630 
12:35	51.0	51.0	51.0	97	50.2	0	1	180	0.00	29.630 
12:40	51.0	51.0	51.0	97	50.2	0	3	180	0.00	29.630 
12:45	50.8	50.8	50.8	97	50.0	0	2	158	0.00	29.629 
12:50	50.8	50.8	50.8	97	50.0	0	0	---	0.00	29.629 
12:55	50.8	50.8	50.8	97	50.0	1	2	158	0.00	29.629 
13:00	50.8	50.8	50.8	97	50.0	0	1	158	0.00	29.614 
13:05	50.8	50.8	50.8	97	50.0	0	0	---	0.00	29.614 
13:10	50.8	50.8	50.8	97	50.0	0	1	158	0.00	29.614 
13:15	50.8	50.8	50.8	97	50.0	0	0	---	0.00	29.614 
13:20	50.8	50.8	50.8	97	50.0	0	1	158	0.00	29.614 
13:25	50.7	50.7	50.7	97	49.9	1	3	158	0.00	29.614 
13:30	50.8	50.8	50.8	97	50.0	0	2	135	0.00	29.594 
13:35	50.8	50.8	50.8	97	50.0	0	0	---	0.00	29.594 
13:40	50.8	50.8	50.8	97	50.0	1	2	135	0.00	29.594 
13:45	50.8	50.8	50.8	97	50.0	0	1	135	0.00	29.597 
13:50	50.7	50.7	50.7	97	49.9	0	1	135	0.00	29.597 
13:55	50.7	50.7	50.7	97	49.9	0	1	135	0.00	29.597 
14:00	50.5	50.5	50.5	97	49.7	0	0	---	0.00	29.596 
14:05	50.5	50.5	50.5	97	49.7	0	1	135	0.00	29.596 
14:10	50.5	50.5	50.5	97	49.7	0	1	135	0.00	29.596 
14:15	50.4	50.4	50.4	97	49.6	1	2	135	0.00	29.587 
14:20	50.4	50.4	50.4	97	49.6	1	3	112	0.00	29.587 
14:25	50.5	50.5	50.5	97	49.7	0	1	112	0.00	29.587 
14:30	50.4	50.4	50.4	97	49.6	0	1	112	0.00	29.585 
14:35	50.4	50.4	50.4	97	49.6	0	1	112	0.00	29.585 
14:40	50.4	50.4	50.4	97	49.6	0	1	112	0.00	29.585 
14:45	50.4	50.4	50.4	97	49.6	0	0	---	0.00	29.593 
14:50	50.4	50.4	50.4	97	49.6	0	0	---	0.00	29.593 
14:55	50.4	50.4	50.4	97	49.6	0	1	112	0.00	29.593 
15:00	50.4	50.4	50.4	97	49.6	0	0	---	0.01	29.583 
15:05	50.4	50.4	50.4	97	49.6	0	1	112	0.00	29.583 
15:10	50.4	50.4	50.4	97	49.6	1	2	112	0.00	29.583 
15:15	50.4	50.4	50.4	97	49.6	1	2	112	0.01	29.571 
15:20	50.4	50.4	50.4	97	49.6	1	3	112	0.00	29.571 
15:25	50.2	50.2	50.2	97	49.4	1	3	112	0.00	29.571 
15:30	50.2	50.2	50.2	97	49.4	0	1	112	0.00	29.584 
15:35	50.2	50.2	50.2	97	49.4	0	0	---	0.01	29.584 
15:40	50.2	50.2	50.2	97	49.4	0	2	112	0.01	29.584 
15:45	50.2	50.2	50.2	97	49.4	0	0	---	0.00	29.592 
15:50	50.2	50.2	50.2	97	49.4	1	2	112	0.00	29.592 
15:55	50.2	50.2	50.2	97	49.4	0	1	112	0.01	29.592 
16:00	50.1	50.1	50.1	97	49.3	1	2	112	0.01	29.585 
16:05	50.1	50.1	50.1	97	49.3	0	1	112	0.00	29.585 
16:10	50.1	50.1	50.1	97	49.3	0	1	112	0.01	29.585 
16:15	50.1	50.1	50.1	97	49.3	1	3	112	0.01	29.587 
16:20	50.1	50.1	50.1	97	49.3	2	4	90	0.00	29.587 
16:25	49.9	49.9	49.9	98	49.4	1	3	90	0.01	29.587 
16:30	49.9	49.9	49.9	98	49.4	2	4	90	0.00	29.591 
16:35	49.9	49.9	49.9	98	49.4	0	3	90	0.01	29.591 
16:40	49.9	49.9	49.9	98	49.4	0	2	338	0.00	29.591 
16:45	49.9	49.9	49.9	98	49.4	1	3	90	0.01	29.586 
16:50	49.8	49.8	49.8	98	49.3	0	3	90	0.01	29.586 
16:55	49.8	49.8	49.8	98	49.3	0	1	90	0.00	29.586 
17:00	49.8	49.8	49.8	98	49.3	1	3	90	0.01	29.583 
17:05	49.8	49.8	49.8	98	49.3	2	4	112	0.00	29.583 
17:10	49.6	49.6	49.6	98	49.1	3	6	112	0.00	29.583 
17:15	49.6	49.6	49.6	98	49.1	3	6	112	0.00	29.572 
17:20	49.6	49.6	49.6	98	49.1	0	3	112	0.00	29.572 
17:25	49.6	49.6	49.6	98	49.1	0	2	45	0.00	29.572 
17:30	49.6	49.6	49.6	98	49.1	0	2	45	0.01	29.598 
17:35	49.5	49.5	49.5	98	49.0	0	3	45	0.00	29.598 
17:40	49.5	49.5	49.5	98	49.0	0	1	292	0.00	29.598 
17:45	49.5	49.5	49.5	98	49.0	0	2	315	0.01	29.601 
17:50	49.5	49.5	49.5	98	49.0	0	1	315	0.01	29.601 
17:55	49.5	49.5	49.5	98	49.0	0	2	315	0.00	29.601 
18:00	49.4	49.4	49.4	98	48.9	0	1	315	0.00	29.612 
18:05	49.4	49.4	49.4	98	48.9	0	2	315	0.00	29.612 
18:10	49.4	49.4	49.4	98	48.9	0	1	315	0.01	29.612 
18:15	49.4	49.4	49.4	98	48.9	1	3	0	0.01	29.598 
18:20	49.4	49.4	49.4	98	48.9	0	2	90	0.00	29.598 
18:25	49.2	49.2	49.2	98	48.7	0	1	90	0.01	29.598 
18:30	49.2	49.2	49.2	98	48.7	0	1	90	0.00	29.596 
18:35	49.2	49.2	49.2	98	48.7	0	2	90	0.01	29.596 
18:40	49.1	49.1	49.1	98	48.6	0	1	90	0.00	29.596 
18:45	49.1	49.1	49.1	98	48.6	2	5	90	0.00	29.583 
18:50	49.2	49.2	49.2	98	48.7	1	7	90	0.00	29.583 
18:55	49.2	49.2	49.2	98	48.7	1	3	90	0.00	29.583 
19:00	49.2	49.2	49.2	98	48.7	1	3	112	0.01	29.591 
19:05	49.2	49.2	49.2	98	48.7	0	2	112	0.00	29.591 
19:10	49.2	49.2	49.2	98	48.7	0	0	---	0.00	29.591 
19:15	49.1	49.1	49.1	98	48.6	0	0	---	0.00	29.602 
19:20	49.1	49.1	49.1	98	48.6	0	0	---	0.00	29.602 
19:25	49.1	49.1	49.1	98	48.6	0	0	---	0.00	29.602 
19:30	49.1	49.1	49.1	98	48.6	0	0	---	0.00	29.602 
19:35	49.2	49.2	49.2	98	48.7	0	1	112	0.00	29.602 
19:40	49.2	49.2	49.2	98	48.7	0	0	---	0.00	29.602 
19:45	49.1	49.1	49.1	98	48.6	0	1	112	0.00	29.593 
19:50	49.1	49.1	49.1	98	48.6	0	1	112	0.01	29.593 
19:55	49.1	49.1	49.1	98	48.6	0	1	112	0.01	29.593 
20:00	48.9	48.9	48.9	98	48.4	0	0	---	0.00	29.592 
20:05	48.9	48.9	48.9	98	48.4	0	1	112	0.00	29.592 
20:10	48.9	48.9	48.9	98	48.4	0	0	---	0.00	29.592 
20:15	48.9	48.9	48.9	98	48.4	0	0	---	0.00	29.602 
20:20	48.9	48.9	48.9	98	48.4	0	0	---	0.00	29.602 
20:25	48.9	48.9	48.9	98	48.4	0	0	---	0.00	29.602 
20:30	48.9	48.9	48.9	98	48.4	0	0	---	0.00	29.602 
20:35	48.9	48.9	48.9	98	48.4	0	0	---	0.00	29.602 
20:40	49.1	49.1	49.1	98	48.6	0	0	---	0.00	29.602 
20:45	49.1	49.1	49.1	98	48.6	0	0	---	0.00	29.603 
20:50	49.1	49.1	49.1	98	48.6	0	1	112	0.00	29.603 
20:55	49.1	49.1	49.1	98	48.6	0	1	112	0.00	29.603 
21:00	49.1	49.1	49.1	98	48.6	0	1	112	0.01	29.607 
21:05	49.1	49.1	49.1	98	48.6	0	2	158	0.00	29.607 
21:10	48.9	48.9	48.9	98	48.4	0	0	---	0.00	29.607 
21:15	48.9	48.9	48.9	98	48.4	0	1	158	0.00	29.601 
21:20	48.9	48.9	48.9	98	48.4	0	0	---	0.00	29.601 
21:25	48.9	48.9	48.9	98	48.4	0	1	158	0.00	29.601 
21:30	48.9	48.9	48.9	98	48.4	0	1	158	0.00	29.587 
21:35	48.9	48.9	48.9	98	48.4	0	0	---	0.00	29.587 
21:40	48.8	48.8	48.8	98	48.3	0	0	---	0.00	29.587 
21:45	48.8	48.8	48.8	98	48.3	0	0	---	0.00	29.594 
21:50	48.8	48.8	48.8	98	48.3	0	0	---	0.00	29.594 
21:55	48.8	48.8	48.8	98	48.3	0	1	158	0.00	29.594 
22:00	48.8	48.8	48.8	98	48.3	0	2	158	0.00	29.607 
22:05	48.8	48.8	48.8	98	48.3	0	2	248	0.00	29.607 
22:10	48.8	48.8	48.8	99	48.5	0	1	248	0.00	29.607 
22:15	48.8	48.8	48.8	99	48.5	0	1	248	0.00	29.607 
22:20	48.8	48.8	48.8	99	48.5	0	1	248	0.00	29.607 
22:25	48.8	48.8	48.8	99	48.5	0	1	248	0.00	29.607 
22:30	48.8	48.8	48.8	99	48.5	0	1	270	0.01	29.615 
22:35	48.8	48.8	48.8	99	48.5	0	2	270	0.00	29.615 
22:40	48.6	48.6	48.6	99	48.3	0	3	270	0.00	29.615 
22:45	48.6	48.6	48.6	99	48.3	0	2	270	0.00	29.613 
22:50	48.6	48.6	48.6	99	48.3	0	1	270	0.00	29.613 
22:55	48.6	48.6	48.6	99	48.3	0	2	248	0.00	29.613 
23:00	48.6	48.6	48.6	99	48.3	0	2	248	0.00	29.617 
23:05	48.6	48.6	48.6	99	48.3	0	2	248	0.00	29.617 
23:10	48.5	48.5	48.5	99	48.2	0	3	248	0.00	29.617 
23:15	48.5	48.5	48.5	99	48.2	1	2	248	0.00	29.616 
23:20	48.5	48.5	48.5	99	48.2	1	3	248	0.00	29.616 
23:25	48.5	48.5	48.5	99	48.2	2	5	248	0.00	29.616 
23:30	48.5	48.5	48.5	99	48.2	1	3	248	0.00	29.615 
23:35	48.5	48.5	48.5	99	48.2	2	5	270	0.00	29.615 
23:40	48.5	48.5	48.5	99	48.2	1	4	248	0.00	29.615 
23:45	48.3	48.3	48.3	99	48.0	1	2	270	0.00	29.619 
23:50	48.3	48.3	48.3	99	48.0	1	3	270	0.00	29.619 
23:55	48.3	48.3	48.3	99	48.0	2	4	248	0.00	29.619 

CoCoRaHS
IN-AL-39
A2 Web Hosting
Creative Commons License
GoDaddy
Look for:

loaded 2017-12-11 23:13:27 • last modified 2010-11-18 10:43:29
Privacy PolicyDisclaimer
• wx.awcolley.com is powered by PmWiki v.2002016 •
• all content (unless otherwise noted) © 2017 A W Colley